Time;durP1;ratioP1;P1;durP2;ratioP2;P2;SDS_P1;SDS_P2;PMS_P1;PMS_P2;Temp;Humidity;BMP_temperature;BMP_pressure;BME280_temperature;BME280_humidity;BME280_pressure;Samples;Min_cycle;Max_cycle;Signal;HPM_P1;HPM_P2
2023/03/02 00:00:12;;;;;;;29.20;17.27;;;2.60;29.40;;;;;;5022778;28;20479;-66
2023/03/02 00:02:39;;;;;;;28.33;17.60;;;2.60;29.50;;;;;;5024429;28;20500;-66
2023/03/02 00:05:09;;;;;;;37.97;18.73;;;2.60;29.70;;;;;;5023264;28;20462;-66
2023/03/02 00:07:37;;;;;;;32.30;18.13;;;2.60;29.70;;;;;;5023412;28;20479;-66
2023/03/02 00:10:05;;;;;;;31.57;18.37;;;2.60;30.00;;;;;;5023202;28;20492;-66
2023/03/02 00:12:34;;;;;;;33.03;17.90;;;2.60;30.00;;;;;;5027712;28;20459;-66
2023/03/02 00:15:00;;;;;;;28.33;18.10;;;2.60;30.10;;;;;;5025327;28;20459;-66
2023/03/02 00:17:27;;;;;;;32.70;17.23;;;2.60;30.20;;;;;;5025693;28;20459;-66
2023/03/02 00:19:54;;;;;;;32.33;18.00;;;2.60;30.30;;;;;;5022512;28;20538;-66
2023/03/02 00:22:20;;;;;;;29.80;17.50;;;2.60;30.40;;;;;;5017528;28;20455;-66
2023/03/02 00:24:47;;;;;;;27.93;16.60;;;2.50;30.40;;;;;;5022246;28;20455;-66
2023/03/02 00:27:14;;;;;;;31.67;17.90;;;2.50;30.60;;;;;;5024736;28;20490;-66
2023/03/02 00:29:42;;;;;;;31.73;16.50;;;2.50;30.60;;;;;;5022793;28;20494;-66
2023/03/02 00:32:13;;;;;;;31.57;17.63;;;2.50;30.60;;;;;;5025889;28;20586;-67
2023/03/02 00:34:40;;;;;;;26.67;17.00;;;2.50;30.70;;;;;;5025694;28;20990;-65
2023/03/02 00:37:07;;;;;;;32.47;18.40;;;2.50;30.70;;;;;;5028868;28;20478;-66
2023/03/02 00:39:33;;;;;;;31.00;18.67;;;2.50;30.80;;;;;;5027513;28;20463;-66
2023/03/02 00:42:00;;;;;;;38.30;18.90;;;2.40;30.90;;;;;;5027568;28;20467;-66
2023/03/02 00:44:27;;;;;;;30.50;17.50;;;2.40;30.90;;;;;;5025159;28;20951;-66
2023/03/02 00:46:55;;;;;;;29.80;17.17;;;2.40;31.00;;;;;;5030517;28;20466;-66
2023/03/02 00:49:22;;;;;;;32.47;18.40;;;2.40;31.00;;;;;;5028055;28;20490;-67
2023/03/02 00:51:48;;;;;;;31.60;18.10;;;2.40;31.00;;;;;;5027635;28;20516;-66
2023/03/02 00:54:15;;;;;;;29.83;18.33;;;2.40;31.00;;;;;;5025202;28;20912;-66
2023/03/02 00:56:42;;;;;;;28.00;17.13;;;2.40;31.10;;;;;;5030685;28;20466;-66
2023/03/02 00:59:25;;;;;;;25.93;16.23;;;2.40;31.20;;;;;;5026412;28;20955;-66
2023/03/02 01:01:56;;;;;;;27.30;15.93;;;2.40;31.30;;;;;;5022372;28;20470;-66
2023/03/02 01:04:28;;;;;;;30.50;17.50;;;2.40;31.50;;;;;;5024946;28;20459;-66
2023/03/02 01:06:55;;;;;;;27.73;16.20;;;2.40;31.50;;;;;;5026726;28;20934;-66
2023/03/02 01:09:22;;;;;;;27.30;16.80;;;2.40;31.50;;;;;;5025854;28;20479;-66
2023/03/02 01:11:49;;;;;;;29.33;16.87;;;2.40;31.70;;;;;;5022668;28;20482;-66
2023/03/02 01:14:15;;;;;;;25.93;15.17;;;2.30;31.80;;;;;;5026617;28;20455;-67
2023/03/02 01:16:42;;;;;;;34.93;17.03;;;2.40;31.90;;;;;;5027574;28;20474;-66
2023/03/02 01:19:09;;;;;;;30.63;17.37;;;2.40;31.90;;;;;;5024969;28;21002;-66
2023/03/02 01:21:37;;;;;;;28.40;16.50;;;2.30;31.90;;;;;;5027108;28;20479;-66
2023/03/02 01:24:04;;;;;;;24.10;15.20;;;2.40;31.90;;;;;;5028421;28;20962;-66
2023/03/02 01:26:31;;;;;;;24.70;15.17;;;2.40;32.10;;;;;;5026790;28;20485;-66
2023/03/02 01:28:58;;;;;;;31.73;18.10;;;2.40;31.90;;;;;;5022747;28;20595;-66
2023/03/02 01:31:26;;;;;;;27.17;15.20;;;2.50;32.00;;;;;;5022584;28;20502;-66
2023/03/02 01:33:53;;;;;;;29.47;16.10;;;2.50;32.00;;;;;;5024922;28;20459;-66
2023/03/02 01:36:20;;;;;;;28.77;17.60;;;2.60;31.80;;;;;;5024803;28;20463;-66
2023/03/02 01:38:49;;;;;;;24.43;15.67;;;2.60;31.70;;;;;;5026905;28;20828;-66
2023/03/02 01:41:16;;;;;;;29.27;16.07;;;2.60;31.60;;;;;;5028406;28;20490;-66
2023/03/02 01:43:43;;;;;;;28.73;16.10;;;2.60;31.60;;;;;;5025114;28;20458;-66
2023/03/02 01:46:13;;;;;;;28.77;15.53;;;2.60;31.50;;;;;;5027996;28;20463;-66
2023/03/02 01:48:45;;;;;;;27.50;17.20;;;2.70;31.70;;;;;;5025435;28;21029;-67
2023/03/02 01:51:15;;;;;;;30.77;16.47;;;2.70;31.70;;;;;;5026129;28;20571;-66
2023/03/02 01:53:45;;;;;;;28.80;17.03;;;2.70;31.60;;;;;;5025762;28;20459;-66
2023/03/02 01:56:17;;;;;;;30.40;16.60;;;2.80;31.40;;;;;;5024379;28;21304;-66
2023/03/02 01:58:44;;;;;;;31.30;16.27;;;2.70;31.60;;;;;;5024476;28;20451;-65
2023/03/02 02:01:15;;;;;;;28.20;17.30;;;2.80;31.50;;;;;;5024298;28;20486;-65
2023/03/02 02:03:43;;;;;;;25.97;14.83;;;2.80;31.40;;;;;;5025020;28;20466;-66
2023/03/02 02:06:18;;;;;;;24.30;13.90;;;2.80;31.30;;;;;;5025786;28;20455;-66
2023/03/02 02:08:45;;;;;;;26.53;14.43;;;2.80;31.40;;;;;;5026894;28;20479;-66
2023/03/02 02:11:13;;;;;;;30.77;16.53;;;2.80;31.30;;;;;;5027335;28;20479;-66
2023/03/02 02:13:40;;;;;;;28.00;15.40;;;2.80;31.30;;;;;;5026252;28;20459;-66
2023/03/02 02:16:07;;;;;;;26.87;15.60;;;2.80;31.30;;;;;;5021934;28;20932;-65
2023/03/02 02:18:37;;;;;;;26.00;15.27;;;2.80;31.30;;;;;;5026205;28;20451;-66
2023/03/02 02:21:05;;;;;;;26.60;16.77;;;2.80;31.20;;;;;;5023539;28;20486;-66
2023/03/02 02:23:39;;;;;;;27.13;15.40;;;2.80;31.30;;;;;;5028584;28;20994;-65
2023/03/02 02:26:16;;;;;;;25.20;15.70;;;2.90;31.20;;;;;;5022842;28;20505;-66
2023/03/02 02:28:48;;;;;;;28.43;15.00;;;2.80;31.10;;;;;;5021712;28;20536;-66
2023/03/02 02:31:19;;;;;;;23.37;14.37;;;2.90;31.10;;;;;;5030134;28;20508;-66
2023/03/02 02:33:51;;;;;;;35.37;17.10;;;2.90;31.00;;;;;;5023632;28;20459;-66
2023/03/02 02:36:22;;;;;;;26.17;15.47;;;2.90;30.90;;;;;;5027842;28;20455;-66
2023/03/02 02:38:56;;;;;;;26.07;14.47;;;3.00;30.90;;;;;;5029280;28;20459;-67
2023/03/02 02:41:27;;;;;;;26.53;15.83;;;3.00;30.70;;;;;;5027183;28;21209;-66
2023/03/02 02:43:55;;;;;;;27.53;15.07;;;3.00;30.80;;;;;;5021249;28;20459;-66
2023/03/02 02:46:22;;;;;;;24.43;14.10;;;3.00;30.70;;;;;;5021372;28;20514;-66
2023/03/02 02:48:49;;;;;;;24.47;15.43;;;3.00;30.70;;;;;;5024946;28;20485;-66
2023/03/02 02:51:21;;;;;;;28.30;16.70;;;3.00;30.80;;;;;;5028314;28;21002;-66
2023/03/02 02:53:50;;;;;;;21.67;12.97;;;3.00;30.70;;;;;;5024333;28;20470;-66
2023/03/02 02:56:19;;;;;;;23.33;15.30;;;3.00;30.70;;;;;;5023338;28;20817;-66
2023/03/02 02:58:50;;;;;;;27.50;14.70;;;3.00;30.80;;;;;;5020829;28;20466;-66
2023/03/02 03:01:19;;;;;;;25.10;16.37;;;3.00;30.60;;;;;;5026896;28;20553;-67
2023/03/02 03:03:51;;;;;;;23.03;14.90;;;3.00;30.70;;;;;;5020740;28;20974;-67
2023/03/02 03:06:19;;;;;;;24.53;14.47;;;3.00;30.60;;;;;;5026411;28;20463;-66
2023/03/02 03:08:59;;;;;;;22.60;13.97;;;3.00;30.50;;;;;;5014843;28;20479;-67
2023/03/02 03:11:27;;;;;;;23.47;14.27;;;3.00;30.40;;;;;;5026396;28;20490;-66
2023/03/02 03:14:02;;;;;;;27.33;15.60;;;3.10;30.40;;;;;;5023592;28;20454;-66
2023/03/02 03:16:30;;;;;;;25.40;14.17;;;3.10;30.30;;;;;;5020741;28;20553;-66
2023/03/02 03:19:01;;;;;;;27.80;15.13;;;3.10;30.20;;;;;;5027395;28;20463;-66
2023/03/02 03:21:28;;;;;;;24.30;14.63;;;3.10;30.20;;;;;;5027788;28;20483;-66
2023/03/02 03:23:55;;;;;;;25.57;15.47;;;3.10;30.10;;;;;;5026223;28;20828;-66
2023/03/02 03:26:22;;;;;;;31.60;15.30;;;3.10;30.20;;;;;;5025798;28;20465;-67
2023/03/02 03:28:48;;;;;;;27.00;16.07;;;3.10;30.10;;;;;;5025763;28;20475;-67
2023/03/02 03:31:16;;;;;;;30.50;14.20;;;3.10;29.90;;;;;;5025883;28;21013;-66
2023/03/02 03:33:43;;;;;;;26.17;15.90;;;3.10;30.00;;;;;;5025084;28;20842;-66
2023/03/02 03:36:10;;;;;;;29.20;14.70;;;3.10;30.00;;;;;;5025257;28;20918;-66
2023/03/02 03:38:37;;;;;;;32.20;17.03;;;3.20;30.00;;;;;;5025986;28;20459;-65
2023/03/02 03:41:04;;;;;;;25.60;14.70;;;3.20;29.80;;;;;;5024348;28;20525;-66
2023/03/02 03:43:31;;;;;;;24.10;14.37;;;3.20;29.80;;;;;;5024453;28;20478;-66
2023/03/02 03:45:57;;;;;;;26.60;14.97;;;3.20;29.60;;;;;;5023695;28;20471;-67
2023/03/02 03:48:26;;;;;;;25.77;14.67;;;3.20;29.50;;;;;;5022504;28;20466;-67
2023/03/02 03:50:52;;;;;;;28.53;15.77;;;3.20;29.50;;;;;;5019258;28;20855;-67
2023/03/02 03:53:19;;;;;;;24.50;14.97;;;3.20;29.40;;;;;;5024098;28;20454;-67
2023/03/02 03:55:46;;;;;;;24.20;14.00;;;3.20;29.40;;;;;;5022895;28;20462;-66
2023/03/02 03:58:13;;;;;;;29.27;16.33;;;3.20;29.30;;;;;;5019033;28;20541;-66
2023/03/02 04:00:40;;;;;;;25.37;14.43;;;3.30;29.20;;;;;;5024210;28;20487;-66
2023/03/02 04:03:06;;;;;;;23.50;14.43;;;3.20;29.20;;;;;;5026263;28;21002;-66
2023/03/02 04:05:34;;;;;;;27.33;14.87;;;3.20;29.20;;;;;;5024461;28;20466;-66
2023/03/02 04:08:01;;;;;;;27.50;15.70;;;3.20;29.20;;;;;;5021401;28;20463;-66
2023/03/02 04:10:28;;;;;;;26.93;16.40;;;3.20;29.10;;;;;;5025671;28;20490;-66
2023/03/02 04:12:55;;;;;;;28.00;16.37;;;3.20;29.10;;;;;;5031386;28;20478;-66
2023/03/02 04:15:23;;;;;;;23.13;15.00;;;3.20;29.80;;;;;;5029693;28;20469;-66
2023/03/02 04:17:50;;;;;;;26.13;14.60;;;3.20;29.20;;;;;;5023309;28;20458;-66
2023/03/02 04:20:18;;;;;;;30.67;15.03;;;3.20;29.20;;;;;;5025698;28;20482;-66
2023/03/02 04:22:49;;;;;;;29.60;16.13;;;3.20;29.20;;;;;;5029753;28;20850;-66
2023/03/02 04:25:18;;;;;;;31.13;16.40;;;3.20;29.30;;;;;;5025702;28;20958;-66
2023/03/02 04:27:45;;;;;;;25.20;14.87;;;3.20;29.20;;;;;;5021027;28;20463;-65
2023/03/02 04:30:13;;;;;;;25.07;15.53;;;3.20;29.10;;;;;;5027510;28;20486;-66
2023/03/02 04:32:40;;;;;;;26.90;15.00;;;3.20;29.20;;;;;;5029930;28;20490;-67
2023/03/02 04:35:07;;;;;;;24.20;14.63;;;3.20;29.30;;;;;;5029584;28;20458;-67
2023/03/02 04:37:34;;;;;;;27.33;15.00;;;3.20;29.20;;;;;;5027318;28;20470;-67
2023/03/02 04:40:03;;;;;;;27.40;16.30;;;3.20;29.40;;;;;;5030044;28;20478;-67
2023/03/02 04:42:30;;;;;;;28.83;15.83;;;3.20;29.40;;;;;;5025140;28;20467;-67
2023/03/02 04:44:57;;;;;;;25.80;14.73;;;3.10;29.50;;;;;;5028074;28;20969;-67
2023/03/02 04:47:23;;;;;;;27.10;14.67;;;3.20;29.40;;;;;;5028201;28;20467;-66
2023/03/02 04:49:53;;;;;;;26.37;14.53;;;3.20;29.50;;;;;;5025382;28;20488;-66
2023/03/02 04:52:20;;;;;;;27.57;16.27;;;3.10;29.60;;;;;;5024355;28;20990;-67
2023/03/02 04:54:47;;;;;;;24.80;14.80;;;3.10;29.50;;;;;;5026496;28;20470;-66
2023/03/02 04:57:15;;;;;;;24.07;14.60;;;3.10;29.60;;;;;;5029965;28;20465;-66
2023/03/02 04:59:42;;;;;;;24.67;14.43;;;3.10;29.60;;;;;;5026008;28;20459;-67
2023/03/02 05:02:09;;;;;;;31.33;15.63;;;3.10;29.60;;;;;;5028331;28;21069;-67
2023/03/02 05:04:35;;;;;;;27.30;15.30;;;3.10;29.60;;;;;;5028850;28;20490;-67
2023/03/02 05:07:02;;;;;;;29.43;16.30;;;3.10;29.60;;;;;;5028720;28;20492;-67
2023/03/02 05:09:29;;;;;;;24.93;14.53;;;3.10;29.60;;;;;;5025823;28;20479;-68
2023/03/02 05:11:58;;;;;;;31.37;16.50;;;3.10;29.60;;;;;;5031295;28;20989;-68
2023/03/02 05:14:26;;;;;;;28.50;15.93;;;3.10;29.60;;;;;;5029925;28;20458;-68
2023/03/02 05:16:54;;;;;;;23.17;14.40;;;3.10;29.70;;;;;;5027457;28;20463;-64
2023/03/02 05:19:20;;;;;;;25.27;15.10;;;3.10;29.50;;;;;;5024121;28;20481;-66
2023/03/02 05:21:47;;;;;;;26.77;15.10;;;3.10;29.60;;;;;;5020331;28;20486;-66
2023/03/02 05:24:14;;;;;;;28.00;14.77;;;3.10;30.40;;;;;;5022083;28;20479;-67
2023/03/02 05:26:41;;;;;;;23.10;13.80;;;3.10;29.90;;;;;;5026235;28;20481;-67
2023/03/02 05:29:08;;;;;;;27.57;15.27;;;3.10;29.80;;;;;;5027948;28;20852;-67
2023/03/02 05:31:39;;;;;;;29.10;16.00;;;3.10;29.80;;;;;;5016845;28;20487;-66
2023/03/02 05:34:08;;;;;;;28.77;16.77;;;3.10;29.70;;;;;;5024785;28;20877;-64
2023/03/02 05:36:35;;;;;;;27.10;15.90;;;3.10;29.70;;;;;;5021943;28;20463;-62
2023/03/02 05:39:02;;;;;;;27.03;15.17;;;3.10;29.70;;;;;;5021520;28;20849;-62
2023/03/02 05:41:29;;;;;;;26.53;14.80;;;3.10;29.70;;;;;;5024097;28;20483;-62
2023/03/02 05:43:56;;;;;;;27.77;14.77;;;3.10;29.70;;;;;;5020404;28;20974;-65
2023/03/02 05:46:22;;;;;;;28.13;16.07;;;3.10;29.70;;;;;;5025212;28;20463;-63
2023/03/02 05:48:50;;;;;;;23.30;14.97;;;3.10;29.70;;;;;;5027805;28;20617;-63
2023/03/02 05:51:17;;;;;;;27.77;15.67;;;3.10;29.70;;;;;;5016398;28;20484;-63
2023/03/02 05:53:44;;;;;;;26.33;14.53;;;3.10;29.70;;;;;;5026379;28;20458;-63
2023/03/02 05:56:10;;;;;;;28.30;16.63;;;3.20;29.50;;;;;;5020398;28;20460;-63
2023/03/02 05:58:37;;;;;;;29.57;15.20;;;3.20;29.50;;;;;;5023463;28;20471;-63
2023/03/02 06:01:08;;;;;;;29.43;15.50;;;3.10;29.60;;;;;;5021412;28;20482;-63
2023/03/02 06:03:35;;;;;;;32.47;15.20;;;3.10;29.50;;;;;;5025247;28;20463;-64
2023/03/02 06:06:03;;;;;;;27.40;14.07;;;3.10;29.60;;;;;;5021817;28;20459;-63
2023/03/02 06:08:30;;;;;;;24.97;14.47;;;3.20;29.40;;;;;;5022699;28;20459;-63
2023/03/02 06:10:57;;;;;;;28.13;16.73;;;3.20;29.40;;;;;;5020779;28;20606;-63
2023/03/02 06:13:24;;;;;;;26.80;14.53;;;3.20;29.40;;;;;;5022747;28;20859;-62
2023/03/02 06:15:51;;;;;;;30.67;15.60;;;3.20;29.40;;;;;;5027349;28;20454;-62
2023/03/02 06:18:17;;;;;;;25.90;14.23;;;3.50;29.50;;;;;;5025722;28;20459;-62
2023/03/02 06:20:44;;;;;;;26.37;15.13;;;3.20;29.50;;;;;;5021697;28;20483;-60
2023/03/02 06:23:12;;;;;;;25.10;15.70;;;3.20;29.50;;;;;;5015718;28;20459;-60
2023/03/02 06:25:42;;;;;;;24.10;14.57;;;3.20;29.50;;;;;;5026323;28;20466;-60
2023/03/02 06:28:09;;;;;;;25.10;14.43;;;3.20;29.40;;;;;;5022466;28;20464;-60
2023/03/02 06:30:35;;;;;;;30.90;15.93;;;3.20;29.50;;;;;;5022235;28;20482;-60
2023/03/02 06:33:02;;;;;;;28.43;14.80;;;3.20;29.50;;;;;;5019992;28;20723;-60
2023/03/02 06:35:29;;;;;;;25.97;14.40;;;3.20;29.50;;;;;;5023772;28;20466;-60
2023/03/02 06:37:56;;;;;;;24.57;13.83;;;3.20;29.50;;;;;;5023096;28;20845;-60
2023/03/02 06:40:24;;;;;;;27.93;14.93;;;3.20;29.50;;;;;;5021382;28;20490;-60
2023/03/02 06:42:50;;;;;;;27.93;15.90;;;3.20;29.50;;;;;;5020640;28;20561;-60
2023/03/02 06:45:17;;;;;;;29.40;15.37;;;3.20;29.50;;;;;;5023860;28;20462;-61
2023/03/02 06:47:44;;;;;;;29.47;16.13;;;3.20;29.60;;;;;;5022729;28;20459;-63
2023/03/02 06:52:36;;;;;;;27.20;15.13;;;3.20;29.60;;;;;;5025050;22;22074;-63
2023/03/02 06:55:03;;;;;;;26.67;17.23;;;3.20;29.60;;;;;;5031223;28;20722;-63
2023/03/02 06:57:33;;;;;;;28.20;15.70;;;3.20;29.60;;;;;;5041906;28;20478;-63
2023/03/02 07:00:01;;;;;;;32.13;14.53;;;3.20;29.60;;;;;;5038536;28;20450;-63
2023/03/02 07:02:27;;;;;;;30.37;14.53;;;3.20;29.40;;;;;;5015745;28;20566;-63
2023/03/02 07:04:54;;;;;;;29.67;15.77;;;3.20;29.60;;;;;;5018721;28;20455;-63
2023/03/02 07:07:21;;;;;;;30.40;16.00;;;3.20;29.50;;;;;;5017751;28;20488;-61
2023/03/02 07:09:48;;;;;;;27.50;15.53;;;3.20;30.10;;;;;;5013086;28;20463;-61
2023/03/02 07:12:14;;;;;;;22.00;14.80;;;3.30;29.60;;;;;;5005641;28;21053;-61
2023/03/02 07:14:42;;;;;;;28.90;17.03;;;3.30;29.50;;;;;;5018582;28;20459;-61
2023/03/02 07:17:09;;;;;;;26.13;14.73;;;3.30;29.60;;;;;;5018874;28;20455;-61
2023/03/02 07:19:37;;;;;;;28.20;14.80;;;3.30;29.60;;;;;;5009891;28;20493;-63
2023/03/02 07:22:04;;;;;;;25.33;14.83;;;3.30;29.70;;;;;;5010712;28;20507;-63
2023/03/02 07:24:31;;;;;;;31.53;15.63;;;3.50;29.70;;;;;;5009913;28;20465;-65
2023/03/02 07:26:58;;;;;;;25.30;14.53;;;3.30;29.60;;;;;;5002969;28;20472;-65
2023/03/02 07:29:25;;;;;;;25.57;15.40;;;3.40;29.50;;;;;;5011826;28;20712;-68
2023/03/02 07:31:55;;;;;;;26.70;14.93;;;3.40;29.50;;;;;;5011365;28;20486;-67
2023/03/02 07:34:23;;;;;;;28.63;15.53;;;3.50;29.40;;;;;;5014650;28;20513;-78
2023/03/02 07:36:50;;;;;;;26.50;15.20;;;3.50;29.20;;;;;;5004242;28;20475;-64
2023/03/02 07:39:17;;;;;;;25.10;15.70;;;3.60;29.10;;;;;;5013308;28;20455;-66
2023/03/02 07:41:44;;;;;;;32.20;15.20;;;3.70;29.10;;;;;;5009105;28;20520;-72
2023/03/02 07:44:10;;;;;;;26.40;15.77;;;3.70;28.90;;;;;;5013912;28;20463;-72
2023/03/02 07:46:37;;;;;;;30.10;14.70;;;3.80;28.80;;;;;;5018482;28;20474;-71
2023/03/02 07:49:06;;;;;;;36.87;15.23;;;3.80;28.50;;;;;;5016404;28;20458;-62
2023/03/02 07:51:33;;;;;;;27.47;14.97;;;3.90;28.50;;;;;;5018563;28;20494;-62
2023/03/02 07:54:01;;;;;;;28.80;17.07;;;3.90;28.30;;;;;;5021508;28;20490;-62
2023/03/02 07:56:28;;;;;;;26.03;15.17;;;4.00;28.10;;;;;;5016830;28;20466;-63
2023/03/02 07:58:55;;;;;;;24.80;13.87;;;4.00;28.00;;;;;;5020936;28;20484;-63
2023/03/02 08:01:22;;;;;;;28.60;14.57;;;4.00;27.90;;;;;;5018794;28;20471;-67
2023/03/02 08:03:48;;;;;;;26.53;15.37;;;4.00;27.90;;;;;;5019789;28;20842;-66
2023/03/02 08:06:19;;;;;;;28.83;16.10;;;4.10;27.70;;;;;;5018343;28;20741;-61
2023/03/02 08:08:46;;;;;;;27.70;16.77;;;4.10;27.50;;;;;;5020230;28;21006;-62
2023/03/02 08:11:15;;;;;;;28.07;15.90;;;4.10;27.40;;;;;;5017624;28;20801;-62
2023/03/02 08:13:43;;;;;;;25.60;14.53;;;4.10;27.50;;;;;;5022139;28;20458;-62
2023/03/02 08:16:11;;;;;;;26.27;14.83;;;4.10;27.50;;;;;;5018438;28;20462;-68
2023/03/02 08:18:39;;;;;;;24.00;14.80;;;4.20;27.10;;;;;;5017142;28;20458;-67
2023/03/02 08:21:12;;;;;;;25.47;14.03;;;4.20;27.10;;;;;;5021848;28;21006;-62
2023/03/02 08:23:41;;;;;;;25.93;14.70;;;4.20;27.20;;;;;;5019723;28;20852;-63
2023/03/02 08:26:08;;;;;;;24.37;14.00;;;4.30;27.00;;;;;;5015685;28;21080;-67
2023/03/02 08:28:34;;;;;;;22.80;13.80;;;4.40;26.70;;;;;;5017509;28;20478;-64
2023/03/02 08:31:03;;;;;;;27.10;14.20;;;4.40;26.70;;;;;;5014819;28;21058;-66
2023/03/02 08:33:30;;;;;;;26.23;14.83;;;4.50;26.60;;;;;;5011570;28;20462;-62
2023/03/02 08:35:58;;;;;;;25.43;15.10;;;4.50;26.60;;;;;;5015649;28;20463;-64
2023/03/02 08:38:25;;;;;;;24.80;14.73;;;4.60;26.40;;;;;;5013693;28;20470;-64
2023/03/02 08:40:53;;;;;;;20.20;12.43;;;4.70;26.30;;;;;;5019638;28;20487;-63
2023/03/02 08:43:22;;;;;;;24.77;14.37;;;4.70;26.10;;;;;;5009839;28;20463;-64
2023/03/02 08:45:51;;;;;;;24.90;14.03;;;4.80;26.00;;;;;;5018306;28;20463;-65
2023/03/02 08:48:19;;;;;;;26.80;15.43;;;4.90;25.80;;;;;;5014472;28;20960;-64
2023/03/02 08:50:53;;;;;;;25.87;14.63;;;5.00;25.50;;;;;;5016081;28;20493;-64
2023/03/02 08:53:20;;;;;;;25.30;14.37;;;5.10;25.40;;;;;;5018100;28;20462;-62
2023/03/02 08:55:47;;;;;;;26.20;14.30;;;5.20;25.10;;;;;;5016687;28;20492;-63
2023/03/02 08:58:15;;;;;;;23.30;15.50;;;5.30;25.00;;;;;;5014999;28;20454;-65
2023/03/02 09:00:42;;;;;;;25.80;14.90;;;5.30;24.80;;;;;;5017047;28;20480;-64
2023/03/02 09:03:08;;;;;;;25.10;14.33;;;5.40;24.60;;;;;;5018050;28;20455;-62
2023/03/02 09:05:35;;;;;;;22.70;14.30;;;5.40;24.50;;;;;;5017051;28;20462;-62
2023/03/02 09:08:02;;;;;;;25.60;15.47;;;5.50;24.40;;;;;;5017054;28;20495;-61
2023/03/02 09:10:29;;;;;;;30.27;16.60;;;5.60;24.30;;;;;;5019211;28;20475;-62
2023/03/02 09:12:56;;;;;;;26.10;15.10;;;5.60;24.00;;;;;;5021706;28;20471;-61
2023/03/02 09:15:24;;;;;;;27.03;14.80;;;5.70;23.80;;;;;;5014080;28;20470;-62
2023/03/02 09:17:50;;;;;;;24.10;14.40;;;5.70;23.70;;;;;;5024089;28;20458;-62
2023/03/02 09:20:17;;;;;;;27.27;14.53;;;5.70;23.60;;;;;;5025590;28;20471;-62
2023/03/02 09:22:49;;;;;;;32.10;16.70;;;5.60;23.40;;;;;;5015541;28;20474;-62
2023/03/02 09:25:17;;;;;;;26.97;15.03;;;5.60;23.50;;;;;;5013187;28;20583;-63
2023/03/02 09:27:44;;;;;;;23.57;15.60;;;5.60;23.50;;;;;;5020207;28;20460;-62
2023/03/02 09:30:12;;;;;;;28.30;15.77;;;5.50;23.70;;;;;;5021783;28;20459;-63
2023/03/02 09:32:40;;;;;;;24.77;16.80;;;5.50;23.70;;;;;;5019096;28;20473;-63
2023/03/02 09:35:08;;;;;;;27.57;16.10;;;5.60;23.70;;;;;;5015370;28;20459;-64
2023/03/02 09:37:37;;;;;;;27.43;15.83;;;5.70;23.80;;;;;;5015049;28;20994;-62
2023/03/02 09:40:06;;;;;;;31.83;17.30;;;5.70;23.60;;;;;;5017929;28;20463;-62
2023/03/02 09:42:53;;;;;;;26.90;16.30;;;5.70;23.60;;;;;;5016898;28;20482;-64
2023/03/02 09:45:32;;;;;;;29.63;18.40;;;5.80;23.40;;;;;;5014986;28;20462;-68
2023/03/02 09:48:11;;;;;;;25.47;15.73;;;5.80;23.20;;;;;;5020783;28;20460;-69
2023/03/02 09:50:43;;;;;;;27.17;17.10;;;6.00;23.20;;;;;;5013100;28;20509;-68
2023/03/02 09:53:34;;;;;;;31.37;18.30;;;6.00;22.90;;;;;;5018041;28;20460;-68
2023/03/02 09:56:01;;;;;;;29.57;18.40;;;5.90;22.60;;;;;;5008518;28;20467;-69
2023/03/02 09:58:33;;;;;;;25.03;16.43;;;5.90;22.50;;;;;;5010206;28;20550;-71
2023/03/02 10:01:03;;;;;;;27.20;18.00;;;5.90;22.70;;;;;;5006898;28;20480;-69
2023/03/02 10:03:38;;;;;;;26.33;17.70;;;6.00;22.70;;;;;;5019014;28;20471;-68
2023/03/02 10:06:05;;;;;;;30.40;19.67;;;6.10;22.90;;;;;;5017473;28;20469;-66
2023/03/02 10:08:36;;;;;;;25.90;17.23;;;6.20;22.80;;;;;;5018320;28;20471;-67
2023/03/02 10:11:08;;;;;;;30.80;18.37;;;6.20;22.80;;;;;;5015790;28;20562;-68
2023/03/02 10:13:42;;;;;;;26.90;18.00;;;6.20;22.30;;;;;;5013039;28;20482;-66
2023/03/02 10:16:18;;;;;;;27.70;18.67;;;6.00;22.10;;;;;;5010376;28;20455;-65
2023/03/02 10:18:50;;;;;;;25.17;17.20;;;6.00;22.60;;;;;;5017647;28;20459;-64
2023/03/02 10:21:22;;;;;;;28.20;17.87;;;6.00;22.50;;;;;;5014613;28;20474;-66
2023/03/02 10:23:56;;;;;;;33.80;19.43;;;6.20;22.60;;;;;;5018468;28;20490;-69
2023/03/02 10:26:36;;;;;;;31.67;20.50;;;6.30;22.60;;;;;;5018325;28;20807;-65
2023/03/02 10:29:26;;;;;;;31.90;17.87;;;6.50;22.60;;;;;;5015628;28;21018;-69
2023/03/02 10:31:58;;;;;;;29.07;18.80;;;6.60;22.30;;;;;;5022686;28;20498;-70
2023/03/02 10:34:31;;;;;;;32.83;19.70;;;6.70;22.00;;;;;;5016572;28;20471;-68
2023/03/02 10:36:58;;;;;;;30.03;18.60;;;6.80;21.50;;;;;;5020344;28;21005;-71
2023/03/02 10:39:25;;;;;;;27.47;18.40;;;6.90;21.40;;;;;;5018750;28;20517;-71
2023/03/02 10:41:55;;;;;;;24.50;16.27;;;7.00;20.90;;;;;;5020737;28;20684;-65
2023/03/02 10:44:26;;;;;;;34.90;19.20;;;7.10;20.80;;;;;;5021400;28;20970;-64
2023/03/02 10:46:53;;;;;;;29.37;18.73;;;7.30;20.80;;;;;;5010404;28;20464;-64
2023/03/02 10:49:30;;;;;;;28.53;18.00;;;7.50;20.40;;;;;;5010429;28;20478;-64
2023/03/02 10:51:58;;;;;;;27.90;17.17;;;7.70;20.20;;;;;;5019634;28;20491;-67
2023/03/02 10:54:27;;;;;;;27.73;18.77;;;8.10;19.90;;;;;;5015759;28;20463;-65
2023/03/02 10:56:58;;;;;;;26.60;17.60;;;8.40;19.40;;;;;;5017421;28;20544;-64
2023/03/02 10:59:43;;;;;;;27.77;16.77;;;8.70;18.00;;;;;;5017287;28;20475;-64
2023/03/02 11:02:17;;;;;;;25.20;18.20;;;8.80;17.30;;;;;;5013448;28;20478;-64
2023/03/02 11:04:45;;;;;;;27.47;18.60;;;9.10;17.30;;;;;;5014634;28;20455;-65
2023/03/02 11:07:16;;;;;;;36.37;27.40;;;9.50;16.50;;;;;;5012988;28;20464;-69
2023/03/02 11:09:43;;;;;;;26.20;18.47;;;9.90;15.40;;;;;;5009953;28;20482;-63
2023/03/02 11:12:15;;;;;;;28.20;19.27;;;10.40;14.90;;;;;;5015009;28;20486;-63
2023/03/02 11:14:42;;;;;;;27.93;18.77;;;10.80;14.00;;;;;;5009361;28;20546;-64
2023/03/02 11:17:30;;;;;;;27.10;19.27;;;11.30;14.10;;;;;;5018412;28;20947;-64
2023/03/02 11:19:58;;;;;;;27.37;16.63;;;11.40;11.60;;;;;;5012595;28;20467;-66
2023/03/02 11:22:36;;;;;;;25.53;17.13;;;11.40;11.60;;;;;;5011898;28;20487;-65
2023/03/02 11:25:07;;;;;;;23.97;16.57;;;11.50;11.30;;;;;;5009376;28;20467;-63
2023/03/02 11:27:40;;;;;;;28.07;17.90;;;11.50;11.50;;;;;;5013076;28;20467;-63
2023/03/02 11:30:15;;;;;;;24.43;17.37;;;11.80;11.40;;;;;;5003301;28;20467;-64
2023/03/02 11:32:47;;;;;;;25.60;17.37;;;12.10;10.80;;;;;;5004517;28;20503;-65
2023/03/02 11:35:24;;;;;;;27.50;19.07;;;12.40;9.90;;;;;;5008715;28;20544;-62
2023/03/02 11:37:54;;;;;;;24.37;17.50;;;12.80;10.20;;;;;;5009517;28;20469;-65
2023/03/02 11:40:26;;;;;;;23.80;17.60;;;13.10;9.40;;;;;;5011445;28;20463;-64
2023/03/02 11:42:55;;;;;;;25.23;16.30;;;13.30;9.30;;;;;;5009770;28;20458;-65
2023/03/02 11:45:26;;;;;;;25.37;17.73;;;13.40;8.70;;;;;;5006866;28;20459;-75
2023/03/02 11:47:56;;;;;;;23.60;16.60;;;13.40;8.20;;;;;;5010316;28;20961;-69
2023/03/02 11:50:26;;;;;;;21.63;15.97;;;13.40;8.10;;;;;;5006093;28;20470;-68
2023/03/02 11:52:57;;;;;;;24.27;17.90;;;13.50;7.90;;;;;;5011630;28;20487;-71
2023/03/02 11:55:27;;;;;;;25.50;17.93;;;13.30;7.60;;;;;;5005935;28;20460;-73
2023/03/02 11:57:57;;;;;;;27.40;20.17;;;13.20;8.50;;;;;;5015748;28;20466;-70
2023/03/02 12:00:31;;;;;;;27.53;17.63;;;13.10;8.60;;;;;;5013216;28;20471;-69
2023/03/02 12:02:59;;;;;;;25.83;18.37;;;13.10;8.90;;;;;;5012408;28;20815;-66
2023/03/02 12:05:29;;;;;;;26.30;18.10;;;13.00;8.80;;;;;;5018532;28;20470;-69
2023/03/02 12:07:57;;;;;;;34.37;24.77;;;12.90;8.70;;;;;;5011825;28;21002;-69
2023/03/02 12:10:30;;;;;;;27.23;17.67;;;12.80;9.10;;;;;;5013599;28;20459;-68
2023/03/02 12:13:18;;;;;;;25.20;19.37;;;13.00;9.20;;;;;;5012206;28;20488;-69
2023/03/02 12:15:46;;;;;;;29.67;19.20;;;13.00;8.60;;;;;;5000993;28;20471;-71
2023/03/02 12:18:45;;;;;;;23.20;17.87;;;13.00;8.70;;;;;;5016140;28;20471;-70
2023/03/02 12:21:16;;;;;;;25.77;19.10;;;12.90;9.00;;;;;;5016344;28;20509;-71
2023/03/02 12:23:57;;;;;;;27.33;18.57;;;12.70;9.30;;;;;;5011559;28;20463;-69
2023/03/02 12:26:28;;;;;;;28.60;20.47;;;12.60;9.70;;;;;;5011648;28;20473;-69
2023/03/02 12:28:58;;;;;;;28.37;20.00;;;12.50;10.40;;;;;;5015375;28;20458;-72
2023/03/02 12:31:25;;;;;;;30.47;19.77;;;12.50;10.50;;;;;;5015473;28;20871;-69
2023/03/02 12:33:53;;;;;;;32.43;23.23;;;12.40;10.70;;;;;;5016408;28;20455;-69
2023/03/02 12:36:26;;;;;;;25.53;20.23;;;12.40;10.60;;;;;;5016326;28;20466;-72
2023/03/02 12:39:09;;;;;;;27.53;20.07;;;12.40;10.70;;;;;;5013024;28;20464;-72
2023/03/02 12:42:05;;;;;;;27.37;19.83;;;12.50;10.70;;;;;;5017404;28;21329;-72
2023/03/02 12:44:44;;;;;;;28.07;19.50;;;12.70;10.40;;;;;;5011233;28;20471;-71
2023/03/02 12:47:20;;;;;;;30.70;19.83;;;12.90;10.10;;;;;;5014453;28;20546;-70